Terminal Aerodrome Forecast
Issued by NWS

Home | Current Version | Previous Version | Text Only | Print | Product List | Glossary On
Versions: 1 2 3 4 5 6 7 8 9 10 11 12
000
FTPA31 PHFO 272332
TAFHMK
TAF
PHMK 272332Z 2800/2824 18004KT P6SM SCT025 SCT040
     FM280500 03005KT P6SM FEW025
     FM282000 19005KT P6SM FEW025 SCT040=

USA.gov is the U.S. government's official web portal to all federal, state and local government web resources and services.